createdAt,value
2023-03-15T00:00:50.388Z,74.26
2023-03-15T00:03:17.637Z,74.16
2023-03-15T00:05:46.592Z,74.60
2023-03-15T00:08:14.482Z,74.77
2023-03-15T00:10:46.465Z,74.45
2023-03-15T00:13:15.024Z,74.39
2023-03-15T00:15:54.172Z,75.03
2023-03-15T00:18:21.198Z,74.66
2023-03-15T00:20:48.485Z,74.81
2023-03-15T00:23:16.337Z,74.49
2023-03-15T00:25:47.773Z,75.65
2023-03-15T00:28:15.403Z,75.48
2023-03-15T00:30:42.810Z,75.67
2023-03-15T00:33:13.811Z,76.21
2023-03-15T00:35:42.895Z,76.34
2023-03-15T00:38:10.457Z,76.20
2023-03-15T00:40:38.323Z,76.58
2023-03-15T00:43:05.603Z,76.48
2023-03-15T00:45:32.884Z,76.93
2023-03-15T00:48:00.252Z,77.10
2023-03-15T00:50:27.128Z,77.11
2023-03-15T00:52:55.203Z,77.18
2023-03-15T00:55:22.324Z,77.07
2023-03-15T00:57:49.484Z,77.46
2023-03-15T01:00:23.445Z,78.25
2023-03-15T01:02:54.339Z,78.18
2023-03-15T01:05:22.230Z,77.86
2023-03-15T01:07:49.453Z,78.24
2023-03-15T01:10:17.469Z,78.46
2023-03-15T01:12:45.649Z,78.42
2023-03-15T01:15:14.854Z,78.10
2023-03-15T01:17:42.478Z,78.12
2023-03-15T01:20:12.839Z,78.47
2023-03-15T01:22:40.059Z,78.85
2023-03-15T01:25:07.560Z,78.86
2023-03-15T01:27:34.928Z,78.26
2023-03-15T01:30:01.967Z,78.33
2023-03-15T01:35:13.416Z,78.42
2023-03-15T01:37:40.510Z,78.41
2023-03-15T01:40:12.171Z,78.93
2023-03-15T01:43:19.252Z,79.88
2023-03-15T01:46:07.590Z,80.03
2023-03-15T01:48:44.839Z,80.00
2023-03-15T01:51:33.630Z,79.67
2023-03-15T01:54:04.928Z,79.49
2023-03-15T01:56:35.584Z,79.18
2023-03-15T01:59:05.955Z,79.61
2023-03-15T02:01:36.686Z,79.29
2023-03-15T02:04:12.457Z,79.28
2023-03-15T02:06:46.875Z,79.71
2023-03-15T02:09:17.675Z,79.99
2023-03-15T02:11:46.704Z,79.32
2023-03-15T02:14:14.503Z,79.75
2023-03-15T02:16:44.589Z,80.55
2023-03-15T02:19:42.791Z,80.88
2023-03-15T02:22:24.367Z,80.77
2023-03-15T02:25:23.996Z,80.07
2023-03-15T02:28:13.667Z,80.46
2023-03-15T02:30:43.404Z,80.72
2023-03-15T02:33:25.849Z,80.92
2023-03-15T02:35:53.663Z,80.75
2023-03-15T02:38:22.896Z,81.41
2023-03-15T02:40:53.131Z,81.83
2023-03-15T02:43:41.252Z,82.11
2023-03-15T02:46:09.315Z,82.16
2023-03-15T02:48:37.911Z,82.34
2023-03-15T02:51:05.370Z,82.53
2023-03-15T02:53:32.641Z,82.67
2023-03-15T02:55:59.860Z,82.70
2023-03-15T02:58:27.035Z,81.80
2023-03-15T03:00:54.301Z,81.65
2023-03-15T03:03:21.361Z,81.55
2023-03-15T03:05:48.661Z,82.07
2023-03-15T03:08:16.616Z,82.51
2023-03-15T03:10:44.209Z,82.80
2023-03-15T03:13:11.236Z,83.64
2023-03-15T03:15:39.564Z,83.13
2023-03-15T03:18:06.642Z,83.30
2023-03-15T03:20:33.878Z,82.92
2023-03-15T03:23:05.887Z,82.61
2023-03-15T03:25:33.723Z,82.95
2023-03-15T03:28:04.429Z,83.89
2023-03-15T03:30:32.623Z,84.41
2023-03-15T03:32:59.689Z,84.42
2023-03-15T03:35:27.164Z,84.52
2023-03-15T03:37:55.382Z,84.19
2023-03-15T03:40:27.888Z,84.04
2023-03-15T03:42:55.292Z,83.51
2023-03-15T03:45:23.121Z,83.70
2023-03-15T03:47:53.372Z,83.97
2023-03-15T03:50:21.247Z,84.30
2023-03-15T03:52:48.281Z,83.96
2023-03-15T03:55:25.623Z,84.42
2023-03-15T03:57:53.839Z,84.63
2023-03-15T04:00:44.517Z,84.99
2023-03-15T04:03:12.299Z,85.37
2023-03-15T04:05:43.081Z,85.33
2023-03-15T04:08:13.149Z,85.47
2023-03-15T04:10:40.796Z,85.18
2023-03-15T04:13:08.937Z,84.66
2023-03-15T04:15:35.944Z,84.82
2023-03-15T04:18:05.953Z,84.88
2023-03-15T04:20:38.835Z,84.71
2023-03-15T04:23:07.770Z,85.20
2023-03-15T04:25:42.108Z,85.20
2023-03-15T04:28:18.823Z,85.52
2023-03-15T04:31:10.727Z,86.01
2023-03-15T04:33:58.160Z,85.67
2023-03-15T04:36:31.085Z,85.08
2023-03-15T04:39:16.413Z,84.60
2023-03-15T04:42:01.979Z,84.58
2023-03-15T04:45:04.315Z,84.68
2023-03-15T04:47:54.528Z,84.73
2023-03-15T04:50:35.885Z,84.33
2023-03-15T04:53:31.572Z,84.54
2023-03-15T04:56:10.803Z,84.74
2023-03-15T04:59:05.675Z,83.69
2023-03-15T05:01:52.958Z,83.79
2023-03-15T05:04:31.308Z,83.69
2023-03-15T05:07:20.270Z,83.50
2023-03-15T05:09:50.270Z,82.83
2023-03-15T05:12:34.089Z,81.98
2023-03-15T05:15:21.196Z,82.52
2023-03-15T05:18:20.505Z,82.47
2023-03-15T05:21:07.853Z,82.38
2023-03-15T05:23:53.776Z,81.93
2023-03-15T05:26:38.733Z,81.54
2023-03-15T05:29:25.813Z,81.09
2023-03-15T05:32:08.473Z,81.33
2023-03-15T05:34:57.809Z,80.54
2023-03-15T05:37:47.942Z,80.72
2023-03-15T05:40:35.209Z,79.80
2023-03-15T05:43:25.014Z,79.41
2023-03-15T05:46:10.729Z,79.00
2023-03-15T05:48:54.440Z,78.24
2023-03-15T05:51:41.816Z,78.78
2023-03-15T05:54:27.222Z,79.02
2023-03-15T05:57:17.511Z,79.07
2023-03-15T06:00:00.477Z,78.38
2023-03-15T06:02:44.193Z,78.32
2023-03-15T06:05:23.489Z,78.25
2023-03-15T06:07:51.322Z,77.98
2023-03-15T06:10:19.523Z,77.29
2023-03-15T06:12:46.776Z,77.75
2023-03-15T06:15:15.374Z,77.40
2023-03-15T06:17:42.259Z,77.17
2023-03-15T06:20:10.172Z,77.59
2023-03-15T06:22:37.225Z,77.67
2023-03-15T06:25:11.471Z,77.01
2023-03-15T06:27:39.836Z,76.52
2023-03-15T06:30:08.654Z,76.08
2023-03-15T06:32:35.688Z,76.03
2023-03-15T06:35:02.899Z,75.95
2023-03-15T06:37:35.277Z,75.86
2023-03-15T06:40:11.153Z,75.60
2023-03-15T06:42:39.406Z,75.04
2023-03-15T06:45:10.322Z,73.76
2023-03-15T06:47:37.835Z,73.21
2023-03-15T06:50:06.082Z,72.32
2023-03-15T06:52:34.048Z,71.31
2023-03-15T06:55:01.298Z,70.79
2023-03-15T06:57:28.678Z,70.28
2023-03-15T06:59:56.032Z,69.16
2023-03-15T07:02:23.242Z,66.70
2023-03-15T07:04:50.102Z,67.31
2023-03-15T07:07:17.553Z,63.99
2023-03-15T07:09:44.736Z,63.76
2023-03-15T07:12:13.606Z,63.88
2023-03-15T07:14:40.531Z,62.61
2023-03-15T07:17:08.012Z,62.02
2023-03-15T07:19:39.207Z,62.24
2023-03-15T07:22:08.550Z,60.59
2023-03-15T07:24:35.589Z,60.64
2023-03-15T07:27:02.431Z,59.61
2023-03-15T07:29:29.597Z,59.91
2023-03-15T07:31:56.558Z,58.28
2023-03-15T07:34:23.573Z,58.84
2023-03-15T07:36:50.737Z,58.27
2023-03-15T07:39:17.660Z,58.82
2023-03-15T07:41:44.943Z,59.05
2023-03-15T07:44:21.544Z,58.53
2023-03-15T07:46:48.591Z,56.83
2023-03-15T07:49:16.018Z,56.25
2023-03-15T07:51:42.816Z,56.27
2023-03-15T07:54:10.790Z,55.98
2023-03-15T07:56:37.823Z,55.74
2023-03-15T07:59:04.937Z,55.39
2023-03-15T08:01:32.099Z,55.38
2023-03-15T08:03:58.907Z,55.51
2023-03-15T08:06:26.150Z,54.81
2023-03-15T08:08:52.999Z,54.82
2023-03-15T08:11:20.112Z,54.78
2023-03-15T08:13:47.571Z,53.99
2023-03-15T08:16:14.569Z,53.39
2023-03-15T08:18:41.474Z,52.99
2023-03-15T08:21:08.602Z,53.25
2023-03-15T08:23:35.389Z,52.68
2023-03-15T08:26:02.431Z,52.76
2023-03-15T08:28:29.472Z,52.74
2023-03-15T08:30:56.665Z,51.83
2023-03-15T08:33:23.994Z,51.43
2023-03-15T08:35:54.380Z,50.76
2023-03-15T08:38:21.374Z,50.94
2023-03-15T08:40:48.427Z,50.82
2023-03-15T08:43:15.359Z,49.91
2023-03-15T08:45:59.692Z,49.89
2023-03-15T08:48:27.978Z,50.00
2023-03-15T08:50:55.117Z,49.50
2023-03-15T08:53:22.138Z,49.52
2023-03-15T08:55:49.906Z,49.68
2023-03-15T08:58:17.009Z,48.74
2023-03-15T09:00:44.015Z,48.49
2023-03-15T09:03:11.734Z,48.32
2023-03-15T09:05:38.642Z,47.35
2023-03-15T09:08:05.847Z,47.01
2023-03-15T09:10:34.604Z,47.48
2023-03-15T09:13:01.354Z,47.16
2023-03-15T09:15:28.630Z,47.90
2023-03-15T09:17:55.688Z,47.89
2023-03-15T09:20:28.135Z,46.78
2023-03-15T09:22:57.300Z,46.69
2023-03-15T09:25:24.895Z,45.75
2023-03-15T09:27:52.083Z,46.02
2023-03-15T09:30:20.223Z,46.25
2023-03-15T09:32:47.614Z,46.04
2023-03-15T09:35:17.216Z,45.86
2023-03-15T09:37:44.529Z,44.36
2023-03-15T09:40:33.100Z,43.75
2023-03-15T09:43:44.747Z,43.80
2023-03-15T09:46:32.868Z,42.99
2023-03-15T09:49:26.075Z,42.45
2023-03-15T09:52:01.240Z,42.03
2023-03-15T09:54:40.783Z,42.06
2023-03-15T09:57:19.516Z,42.57
2023-03-15T09:59:49.695Z,41.08
2023-03-15T10:02:31.280Z,41.67
2023-03-15T10:05:11.033Z,40.36
2023-03-15T10:07:38.373Z,40.20
2023-03-15T10:10:15.019Z,40.60
2023-03-15T10:12:51.660Z,40.49
2023-03-15T10:15:30.841Z,40.47
2023-03-15T10:18:00.660Z,40.34
2023-03-15T10:20:41.369Z,40.06
2023-03-15T10:23:45.539Z,40.09
2023-03-15T10:26:17.178Z,39.90
2023-03-15T10:28:45.072Z,39.37
2023-03-15T10:31:22.578Z,38.57
2023-03-15T10:33:57.377Z,37.45
2023-03-15T10:36:25.936Z,37.99
2023-03-15T10:38:53.133Z,37.22
2023-03-15T10:41:37.988Z,37.21
2023-03-15T10:44:17.843Z,36.80
2023-03-15T10:47:05.066Z,37.20
2023-03-15T10:49:39.216Z,37.79
2023-03-15T10:52:07.549Z,37.60
2023-03-15T10:54:35.525Z,36.76
2023-03-15T10:57:18.894Z,36.36
2023-03-15T11:00:07.201Z,36.49
2023-03-15T11:02:38.200Z,36.24
2023-03-15T11:05:12.491Z,36.18
2023-03-15T11:07:54.411Z,36.09
2023-03-15T11:10:23.893Z,35.83
2023-03-15T11:12:51.095Z,35.10
2023-03-15T11:15:19.631Z,34.74
2023-03-15T11:17:49.225Z,34.52
2023-03-15T11:20:36.340Z,34.02
2023-03-15T11:23:20.685Z,34.03
2023-03-15T11:25:47.830Z,35.05
2023-03-15T11:28:21.035Z,32.82
2023-03-15T11:30:49.079Z,33.28
2023-03-15T11:33:27.371Z,33.55
2023-03-15T11:35:58.125Z,32.90
2023-03-15T11:38:35.594Z,32.60
2023-03-15T11:41:12.245Z,33.82
2023-03-15T11:44:11.746Z,33.00
2023-03-15T11:46:53.138Z,33.05
2023-03-15T11:49:29.549Z,34.50
2023-03-15T11:51:57.413Z,34.07
2023-03-15T11:54:30.678Z,33.58
2023-03-15T11:57:30.722Z,32.48
2023-03-15T12:00:18.644Z,32.24
2023-03-15T12:02:53.347Z,31.99
2023-03-15T12:05:52.646Z,31.97
2023-03-15T12:08:22.115Z,31.92
2023-03-15T12:10:50.786Z,31.76
2023-03-15T12:13:24.357Z,31.32
2023-03-15T12:15:52.507Z,31.65
2023-03-15T12:18:26.281Z,31.30
2023-03-15T12:21:13.243Z,31.45
2023-03-15T12:24:01.572Z,30.46
2023-03-15T12:26:42.242Z,32.73
2023-03-15T12:29:14.277Z,31.56
2023-03-15T12:31:46.098Z,30.78
2023-03-15T12:34:42.203Z,32.43
2023-03-15T12:37:20.339Z,30.81
2023-03-15T12:40:00.415Z,31.00
2023-03-15T12:42:33.338Z,31.00
2023-03-15T12:45:15.789Z,30.87
2023-03-15T12:48:08.685Z,29.94
2023-03-15T12:50:38.664Z,30.05
2023-03-15T12:53:19.841Z,29.96
2023-03-15T12:55:47.667Z,30.31
2023-03-15T12:58:17.830Z,29.24
2023-03-15T13:00:46.363Z,31.00
2023-03-15T13:03:22.125Z,29.54
2023-03-15T13:06:22.569Z,29.96
2023-03-15T13:09:01.478Z,29.58
2023-03-15T13:11:38.717Z,30.06
2023-03-15T13:14:27.163Z,29.94
2023-03-15T13:17:17.497Z,30.29
2023-03-15T13:19:54.625Z,30.44
2023-03-15T13:22:58.318Z,30.32
2023-03-15T13:25:32.916Z,30.75
2023-03-15T13:28:22.724Z,30.32
2023-03-15T13:30:52.802Z,30.57
2023-03-15T13:33:26.766Z,30.49
2023-03-15T13:36:04.904Z,30.62
2023-03-15T13:38:34.651Z,31.33
2023-03-15T13:41:04.674Z,31.51
2023-03-15T13:43:34.871Z,31.91
2023-03-15T13:46:02.268Z,31.57
2023-03-15T13:48:31.711Z,30.55
2023-03-15T13:51:05.634Z,31.22
2023-03-15T13:53:49.128Z,31.39
2023-03-15T13:56:28.362Z,31.74
2023-03-15T13:58:57.857Z,32.16
2023-03-15T14:01:27.200Z,32.03
2023-03-15T14:04:01.929Z,31.76
2023-03-15T14:06:29.688Z,31.27
2023-03-15T14:09:06.426Z,32.30
2023-03-15T14:11:37.713Z,32.57
2023-03-15T14:14:20.288Z,31.74
2023-03-15T14:17:03.683Z,33.09
2023-03-15T14:19:35.144Z,34.27
2023-03-15T14:22:18.613Z,34.08
2023-03-15T14:24:49.164Z,34.52
2023-03-15T14:27:23.325Z,34.65
2023-03-15T14:29:59.360Z,34.17
2023-03-15T14:32:33.106Z,34.03
2023-03-15T14:35:08.257Z,34.01
2023-03-15T14:37:36.990Z,34.57
2023-03-15T14:40:16.003Z,35.07
2023-03-15T14:42:46.117Z,34.53
2023-03-15T14:45:14.558Z,35.10
2023-03-15T14:47:57.441Z,35.26
2023-03-15T14:50:57.665Z,35.74
2023-03-15T14:53:41.057Z,36.17
2023-03-15T14:56:12.783Z,36.60
2023-03-15T14:58:41.315Z,37.06
2023-03-15T15:01:13.053Z,37.37
2023-03-15T15:03:45.949Z,37.25
2023-03-15T15:06:15.639Z,36.93
2023-03-15T15:08:45.679Z,37.39
2023-03-15T15:11:13.054Z,37.50
2023-03-15T15:13:41.291Z,37.88
2023-03-15T15:16:08.634Z,38.27
2023-03-15T15:18:37.601Z,38.73
2023-03-15T15:21:25.964Z,38.65
2023-03-15T15:23:58.748Z,38.89
2023-03-15T15:26:28.667Z,38.98
2023-03-15T15:28:56.574Z,39.33
2023-03-15T15:31:26.327Z,39.44
2023-03-15T15:33:54.891Z,39.72
2023-03-15T15:36:33.916Z,39.94
2023-03-15T15:39:06.511Z,39.73
2023-03-15T15:41:34.243Z,40.34
2023-03-15T15:44:01.493Z,40.53
2023-03-15T15:46:28.545Z,40.37
2023-03-15T15:48:55.807Z,40.46
2023-03-15T15:51:31.839Z,40.56
2023-03-15T15:54:01.481Z,40.97
2023-03-15T15:56:31.341Z,41.22
2023-03-15T15:58:59.795Z,41.19
2023-03-15T16:01:26.892Z,41.50
2023-03-15T16:03:53.781Z,41.56
2023-03-15T16:06:22.369Z,41.92
2023-03-15T16:08:52.066Z,42.96
2023-03-15T16:11:19.933Z,44.87
2023-03-15T16:13:49.553Z,45.40
2023-03-15T16:16:18.269Z,47.12
2023-03-15T16:18:45.826Z,47.81
2023-03-15T16:21:33.710Z,49.17
2023-03-15T16:24:16.274Z,50.16
2023-03-15T16:26:45.122Z,50.57
2023-03-15T16:29:21.594Z,50.74
2023-03-15T16:31:49.520Z,51.37
2023-03-15T16:34:18.574Z,51.77
2023-03-15T16:36:49.531Z,51.73
2023-03-15T16:39:17.436Z,52.07
2023-03-15T16:41:44.522Z,52.24
2023-03-15T16:44:13.172Z,52.14
2023-03-15T16:46:40.154Z,52.49
2023-03-15T16:49:07.499Z,52.78
2023-03-15T16:51:35.556Z,52.71
2023-03-15T16:54:15.192Z,52.68
2023-03-15T16:56:47.015Z,53.04
2023-03-15T16:59:16.698Z,53.04
2023-03-15T17:01:45.230Z,53.20
2023-03-15T17:04:12.877Z,53.61
2023-03-15T17:06:39.704Z,53.34
2023-03-15T17:09:15.110Z,53.40
2023-03-15T17:11:44.587Z,53.57
2023-03-15T17:14:19.513Z,53.75
2023-03-15T17:16:46.519Z,53.86
2023-03-15T17:19:14.847Z,53.83
2023-03-15T17:21:42.965Z,53.73
2023-03-15T17:24:11.237Z,53.95
2023-03-15T17:26:38.962Z,53.89
2023-03-15T17:29:07.126Z,53.96
2023-03-15T17:31:35.383Z,54.00
2023-03-15T17:34:02.452Z,54.03
2023-03-15T17:36:35.212Z,54.17
2023-03-15T17:39:02.868Z,53.95
2023-03-15T17:41:33.288Z,53.09
2023-03-15T17:44:00.610Z,52.75
2023-03-15T17:46:33.177Z,52.70
2023-03-15T17:49:01.191Z,52.15
2023-03-15T17:51:31.141Z,52.12
2023-03-15T17:53:59.656Z,52.10
2023-03-15T17:56:28.597Z,52.05
2023-03-15T17:58:56.049Z,52.14
2023-03-15T18:01:26.270Z,52.26
2023-03-15T18:03:54.334Z,52.47
2023-03-15T18:06:22.530Z,51.99
2023-03-15T18:08:50.380Z,51.96
2023-03-15T18:11:35.870Z,52.24
2023-03-15T18:14:05.287Z,52.19
2023-03-15T18:16:32.755Z,52.29
2023-03-15T18:18:59.831Z,52.53
2023-03-15T18:21:27.950Z,52.86
2023-03-15T18:23:55.446Z,53.38
2023-03-15T18:26:23.239Z,53.75
2023-03-15T18:28:50.327Z,54.05
2023-03-15T18:31:23.718Z,53.91
2023-03-15T18:33:52.152Z,54.18
2023-03-15T18:36:19.613Z,54.27
2023-03-15T18:38:46.688Z,54.10
2023-03-15T18:41:22.346Z,54.10
2023-03-15T18:43:50.026Z,53.98
2023-03-15T18:46:24.831Z,54.10
2023-03-15T18:48:56.151Z,54.23
2023-03-15T18:51:26.259Z,54.33
2023-03-15T18:53:53.272Z,54.76
2023-03-15T18:56:23.983Z,54.87
2023-03-15T18:58:51.974Z,54.84
2023-03-15T19:01:22.575Z,55.24
2023-03-15T19:03:51.719Z,55.67
2023-03-15T19:06:18.926Z,55.90
2023-03-15T19:08:46.279Z,55.31
2023-03-15T19:11:13.233Z,55.37
2023-03-15T19:13:43.285Z,55.63
2023-03-15T19:16:10.567Z,55.63
2023-03-15T19:18:42.670Z,55.66
2023-03-15T19:21:10.259Z,55.48
2023-03-15T19:23:37.372Z,56.22
2023-03-15T19:26:04.647Z,56.56
2023-03-15T19:28:31.749Z,56.30
2023-03-15T19:31:17.198Z,55.77
2023-03-15T19:33:44.306Z,56.21
2023-03-15T19:36:11.865Z,57.28
2023-03-15T19:38:38.905Z,57.31
2023-03-15T19:41:07.636Z,57.72
2023-03-15T19:43:34.995Z,58.02
2023-03-15T19:46:01.945Z,57.90
2023-03-15T19:48:29.066Z,58.32
2023-03-15T19:50:56.121Z,58.53
2023-03-15T19:53:23.239Z,58.84
2023-03-15T19:55:50.293Z,58.72
2023-03-15T19:58:17.094Z,59.23
2023-03-15T20:00:44.059Z,58.95
2023-03-15T20:03:12.651Z,59.22
2023-03-15T20:05:39.737Z,59.36
2023-03-15T20:08:08.585Z,59.27
2023-03-15T20:10:35.835Z,59.09
2023-03-15T20:13:03.541Z,59.31
2023-03-15T20:15:30.695Z,59.13
2023-03-15T20:17:57.915Z,59.19
2023-03-15T20:20:25.084Z,59.22
2023-03-15T20:22:52.263Z,59.26
2023-03-15T20:25:20.544Z,59.47
2023-03-15T20:27:47.876Z,59.42
2023-03-15T20:30:16.798Z,59.49
2023-03-15T20:32:43.782Z,59.38
2023-03-15T20:35:11.168Z,59.55
2023-03-15T20:37:42.951Z,59.30
2023-03-15T20:40:12.984Z,59.66
2023-03-15T20:42:41.203Z,59.81
2023-03-15T20:45:09.928Z,59.74
2023-03-15T20:47:38.011Z,59.78
2023-03-15T20:50:07.299Z,59.78
2023-03-15T20:52:34.593Z,60.18
2023-03-15T20:55:01.487Z,60.08
2023-03-15T20:57:28.816Z,60.57
2023-03-15T20:59:55.685Z,61.04
2023-03-15T21:02:22.771Z,61.05
2023-03-15T21:04:49.716Z,61.05
2023-03-15T21:07:16.795Z,61.39
2023-03-15T21:09:43.545Z,61.36
2023-03-15T21:12:10.647Z,61.89
2023-03-15T21:14:37.847Z,62.11
2023-03-15T21:17:05.041Z,62.10
2023-03-15T21:19:31.869Z,62.52
2023-03-15T21:22:00.970Z,62.57
2023-03-15T21:24:32.086Z,62.00
2023-03-15T21:26:59.145Z,62.08
2023-03-15T21:29:25.901Z,62.28
2023-03-15T21:31:53.112Z,62.44
2023-03-15T21:34:19.964Z,62.95
2023-03-15T21:36:47.386Z,63.10
2023-03-15T21:39:14.266Z,63.25
2023-03-15T21:41:41.271Z,63.32
2023-03-15T21:44:08.465Z,63.19
2023-03-15T21:46:36.238Z,63.17
2023-03-15T21:49:04.166Z,63.06
2023-03-15T21:51:34.236Z,62.89
2023-03-15T21:54:01.656Z,63.37
2023-03-15T21:56:28.626Z,63.82
2023-03-15T21:58:55.577Z,63.75
2023-03-15T22:01:23.043Z,64.02
2023-03-15T22:03:53.250Z,64.09
2023-03-15T22:06:21.742Z,64.32
2023-03-15T22:08:49.893Z,64.32
2023-03-15T22:11:17.058Z,64.04
2023-03-15T22:13:44.381Z,64.21
2023-03-15T22:16:12.304Z,64.16
2023-03-15T22:18:39.613Z,64.25
2023-03-15T22:21:07.048Z,64.05
2023-03-15T22:23:34.185Z,63.91
2023-03-15T22:26:01.085Z,64.08
2023-03-15T22:28:28.304Z,64.02
2023-03-15T22:30:55.275Z,64.02
2023-03-15T22:33:23.054Z,64.21
2023-03-15T22:35:57.561Z,64.13
2023-03-15T22:38:25.507Z,64.10
2023-03-15T22:41:04.568Z,64.21
2023-03-15T22:43:31.865Z,64.30
2023-03-15T22:45:59.009Z,64.17
2023-03-15T22:48:26.116Z,64.25
2023-03-15T22:50:58.748Z,64.27
2023-03-15T22:53:25.806Z,64.41
2023-03-15T22:55:52.880Z,64.23
2023-03-15T22:58:20.485Z,64.74
2023-03-15T23:00:47.582Z,64.66
2023-03-15T23:03:15.392Z,64.94
2023-03-15T23:05:42.897Z,65.08
2023-03-15T23:08:10.388Z,65.19
2023-03-15T23:10:37.506Z,65.47
2023-03-15T23:13:04.566Z,65.55
2023-03-15T23:15:31.681Z,66.14
2023-03-15T23:17:59.261Z,66.08
2023-03-15T23:20:26.687Z,66.33
2023-03-15T23:22:53.804Z,66.51
2023-03-15T23:25:22.793Z,66.88
2023-03-15T23:27:50.064Z,67.11
2023-03-15T23:30:17.514Z,67.01
2023-03-15T23:32:44.540Z,66.83
2023-03-15T23:35:12.941Z,66.72
2023-03-15T23:37:40.040Z,66.91
2023-03-15T23:40:11.640Z,66.92
2023-03-15T23:42:38.774Z,67.51
2023-03-15T23:45:06.354Z,67.50
2023-03-15T23:47:33.405Z,67.85
2023-03-15T23:50:00.323Z,68.00
2023-03-15T23:52:27.254Z,68.52
2023-03-15T23:54:54.236Z,68.17
2023-03-15T23:57:21.141Z,68.42
2023-03-15T23:59:48.181Z,68.24
